Terminal Aerodrome Forecast
Issued by NWS

Home | Current Version | Previous Version | Graphics & Text | Print | Product List | Glossary On
Versions: 1 2 3 4 5 6 7 8 9 10 11 12 13 14 15 16 17 18 19 20 21 22 23 24 25
530
FTUS43 KBIS 221129
TAFDIK
TAF
KDIK 221129Z 2212/2312 28010KT P6SM OVC007
      TEMPO 2212/2216 5SM BR BKN004 OVC008
     FM222100 27011KT P6SM OVC015
     FM230400 25007KT 3SM BR OVC025
     FM230800 19006KT P6SM SCT020 BKN035=

USA.gov is the U.S. government's official web portal to all federal, state and local government web resources and services.